sensor_id;sensor_type;location;lat;lon;timestamp;P1;durP1;ratioP1;P2;durP2;ratioP2
78336;SDS011;67610;51.588;7.002;2023-04-12T00:02:11;5.70;;;2.03;;
78336;SDS011;67610;51.588;7.002;2023-04-12T00:04:36;6.90;;;2.08;;
78336;SDS011;67610;51.588;7.002;2023-04-12T00:07:02;4.60;;;1.80;;
78336;SDS011;67610;51.588;7.002;2023-04-12T00:09:28;4.60;;;2.17;;
78336;SDS011;67610;51.588;7.002;2023-04-12T00:11:54;4.22;;;1.90;;
78336;SDS011;67610;51.588;7.002;2023-04-12T00:14:21;3.70;;;1.70;;
78336;SDS011;67610;51.588;7.002;2023-04-12T00:16:46;4.72;;;2.08;;
78336;SDS011;67610;51.588;7.002;2023-04-12T00:19:12;5.75;;;1.80;;
78336;SDS011;67610;51.588;7.002;2023-04-12T00:21:37;5.95;;;2.05;;
78336;SDS011;67610;51.588;7.002;2023-04-12T00:24:03;5.53;;;1.75;;
78336;SDS011;67610;51.588;7.002;2023-04-12T00:26:28;6.88;;;2.30;;
78336;SDS011;67610;51.588;7.002;2023-04-12T00:28:54;4.85;;;1.83;;
78336;SDS011;67610;51.588;7.002;2023-04-12T00:31:19;4.30;;;1.80;;
78336;SDS011;67610;51.588;7.002;2023-04-12T00:33:45;4.32;;;1.88;;
78336;SDS011;67610;51.588;7.002;2023-04-12T00:36:10;5.07;;;1.85;;
78336;SDS011;67610;51.588;7.002;2023-04-12T00:38:36;6.57;;;2.08;;
78336;SDS011;67610;51.588;7.002;2023-04-12T00:41:01;6.65;;;1.90;;
78336;SDS011;67610;51.588;7.002;2023-04-12T00:43:27;5.72;;;1.80;;
78336;SDS011;67610;51.588;7.002;2023-04-12T00:45:52;2.88;;;1.70;;
78336;SDS011;67610;51.588;7.002;2023-04-12T00:48:21;3.85;;;1.75;;
78336;SDS011;67610;51.588;7.002;2023-04-12T00:50:47;6.53;;;2.15;;
78336;SDS011;67610;51.588;7.002;2023-04-12T00:53:13;4.55;;;1.90;;
78336;SDS011;67610;51.588;7.002;2023-04-12T00:55:40;4.57;;;1.95;;
78336;SDS011;67610;51.588;7.002;2023-04-12T00:58:08;5.68;;;1.70;;
78336;SDS011;67610;51.588;7.002;2023-04-12T01:00:34;7.70;;;1.90;;
78336;SDS011;67610;51.588;7.002;2023-04-12T01:02:59;5.18;;;1.95;;
78336;SDS011;67610;51.588;7.002;2023-04-12T01:05:28;4.60;;;2.00;;
78336;SDS011;67610;51.588;7.002;2023-04-12T01:16:43;3.63;;;1.73;;
78336;SDS011;67610;51.588;7.002;2023-04-12T01:22:00;4.57;;;1.80;;
78336;SDS011;67610;51.588;7.002;2023-04-12T01:30:20;5.57;;;1.90;;
78336;SDS011;67610;51.588;7.002;2023-04-12T01:32:48;6.22;;;1.70;;
78336;SDS011;67610;51.588;7.002;2023-04-12T01:35:16;4.35;;;1.70;;
78336;SDS011;67610;51.588;7.002;2023-04-12T01:37:43;4.65;;;1.75;;
78336;SDS011;67610;51.588;7.002;2023-04-12T01:40:10;3.20;;;1.50;;
78336;SDS011;67610;51.588;7.002;2023-04-12T01:42:36;5.38;;;1.80;;
78336;SDS011;67610;51.588;7.002;2023-04-12T01:45:02;6.20;;;1.88;;
78336;SDS011;67610;51.588;7.002;2023-04-12T01:47:27;3.85;;;1.85;;
78336;SDS011;67610;51.588;7.002;2023-04-12T01:52:37;6.80;;;1.88;;
78336;SDS011;67610;51.588;7.002;2023-04-12T01:55:06;4.07;;;1.67;;
78336;SDS011;67610;51.588;7.002;2023-04-12T01:57:32;3.53;;;1.98;;
78336;SDS011;67610;51.588;7.002;2023-04-12T01:59:58;4.43;;;1.63;;
78336;SDS011;67610;51.588;7.002;2023-04-12T02:02:26;3.25;;;1.67;;
78336;SDS011;67610;51.588;7.002;2023-04-12T02:04:52;5.32;;;1.80;;
78336;SDS011;67610;51.588;7.002;2023-04-12T02:07:19;4.78;;;1.58;;
78336;SDS011;67610;51.588;7.002;2023-04-12T02:09:45;4.25;;;1.92;;
78336;SDS011;67610;51.588;7.002;2023-04-12T02:12:10;4.25;;;1.63;;
78336;SDS011;67610;51.588;7.002;2023-04-12T02:14:36;5.35;;;1.90;;
78336;SDS011;67610;51.588;7.002;2023-04-12T02:17:02;4.13;;;1.88;;
78336;SDS011;67610;51.588;7.002;2023-04-12T02:19:28;4.00;;;1.83;;
78336;SDS011;67610;51.588;7.002;2023-04-12T02:21:54;5.88;;;2.05;;
78336;SDS011;67610;51.588;7.002;2023-04-12T02:24:19;4.25;;;1.83;;
78336;SDS011;67610;51.588;7.002;2023-04-12T02:26:45;6.30;;;2.72;;
78336;SDS011;67610;51.588;7.002;2023-04-12T02:29:13;2.97;;;1.70;;
78336;SDS011;67610;51.588;7.002;2023-04-12T02:31:39;4.70;;;2.03;;
78336;SDS011;67610;51.588;7.002;2023-04-12T02:34:05;7.88;;;2.00;;
78336;SDS011;67610;51.588;7.002;2023-04-12T02:36:30;6.85;;;1.90;;
78336;SDS011;67610;51.588;7.002;2023-04-12T02:38:56;4.60;;;1.70;;
78336;SDS011;67610;51.588;7.002;2023-04-12T02:41:22;4.97;;;1.80;;
78336;SDS011;67610;51.588;7.002;2023-04-12T02:43:48;4.68;;;1.70;;
78336;SDS011;67610;51.588;7.002;2023-04-12T02:46:14;4.15;;;1.70;;
78336;SDS011;67610;51.588;7.002;2023-04-12T02:48:45;5.45;;;2.00;;
78336;SDS011;67610;51.588;7.002;2023-04-12T02:51:12;4.85;;;1.70;;
78336;SDS011;67610;51.588;7.002;2023-04-12T02:53:37;4.30;;;1.67;;
78336;SDS011;67610;51.588;7.002;2023-04-12T02:56:03;3.85;;;1.60;;
78336;SDS011;67610;51.588;7.002;2023-04-12T02:58:29;5.10;;;1.80;;
78336;SDS011;67610;51.588;7.002;2023-04-12T03:00:55;5.57;;;2.00;;
78336;SDS011;67610;51.588;7.002;2023-04-12T03:05:50;5.47;;;2.00;;
78336;SDS011;67610;51.588;7.002;2023-04-12T03:08:16;3.33;;;1.63;;
78336;SDS011;67610;51.588;7.002;2023-04-12T03:10:42;4.60;;;1.70;;
78336;SDS011;67610;51.588;7.002;2023-04-12T03:13:08;4.57;;;1.95;;
78336;SDS011;67610;51.588;7.002;2023-04-12T03:15:33;3.38;;;1.65;;
78336;SDS011;67610;51.588;7.002;2023-04-12T03:17:58;3.17;;;1.60;;
78336;SDS011;67610;51.588;7.002;2023-04-12T03:20:24;5.40;;;1.90;;
78336;SDS011;67610;51.588;7.002;2023-04-12T03:22:49;4.40;;;1.92;;
78336;SDS011;67610;51.588;7.002;2023-04-12T03:25:15;4.53;;;2.10;;
78336;SDS011;67610;51.588;7.002;2023-04-12T03:27:44;5.05;;;1.73;;
78336;SDS011;67610;51.588;7.002;2023-04-12T03:30:10;5.05;;;1.60;;
78336;SDS011;67610;51.588;7.002;2023-04-12T03:32:39;4.90;;;1.70;;
78336;SDS011;67610;51.588;7.002;2023-04-12T03:35:08;3.60;;;1.70;;
78336;SDS011;67610;51.588;7.002;2023-04-12T03:37:34;5.03;;;1.75;;
78336;SDS011;67610;51.588;7.002;2023-04-12T03:39:59;4.15;;;1.90;;
78336;SDS011;67610;51.588;7.002;2023-04-12T03:42:26;4.05;;;1.55;;
78336;SDS011;67610;51.588;7.002;2023-04-12T03:44:52;3.00;;;1.55;;
78336;SDS011;67610;51.588;7.002;2023-04-12T03:47:18;4.25;;;1.65;;
78336;SDS011;67610;51.588;7.002;2023-04-12T03:49:44;3.60;;;1.63;;
78336;SDS011;67610;51.588;7.002;2023-04-12T03:52:10;5.97;;;1.75;;
78336;SDS011;67610;51.588;7.002;2023-04-12T03:54:35;5.13;;;1.52;;
78336;SDS011;67610;51.588;7.002;2023-04-12T03:57:01;2.58;;;1.70;;
78336;SDS011;67610;51.588;7.002;2023-04-12T03:59:29;4.22;;;1.60;;
78336;SDS011;67610;51.588;7.002;2023-04-12T04:01:56;4.10;;;1.70;;
78336;SDS011;67610;51.588;7.002;2023-04-12T04:04:24;3.78;;;1.58;;
78336;SDS011;67610;51.588;7.002;2023-04-12T04:06:49;2.80;;;1.45;;
78336;SDS011;67610;51.588;7.002;2023-04-12T04:09:15;2.80;;;1.42;;
78336;SDS011;67610;51.588;7.002;2023-04-12T04:11:41;3.15;;;1.70;;
78336;SDS011;67610;51.588;7.002;2023-04-12T04:14:06;3.70;;;1.63;;
78336;SDS011;67610;51.588;7.002;2023-04-12T04:16:32;3.75;;;1.50;;
78336;SDS011;67610;51.588;7.002;2023-04-12T04:18:58;2.75;;;1.50;;
78336;SDS011;67610;51.588;7.002;2023-04-12T04:21:24;2.60;;;1.60;;
78336;SDS011;67610;51.588;7.002;2023-04-12T04:23:50;3.55;;;1.50;;
78336;SDS011;67610;51.588;7.002;2023-04-12T04:26:16;3.10;;;1.65;;
78336;SDS011;67610;51.588;7.002;2023-04-12T04:28:42;5.57;;;1.70;;
78336;SDS011;67610;51.588;7.002;2023-04-12T04:31:11;4.88;;;1.52;;
78336;SDS011;67610;51.588;7.002;2023-04-12T04:33:38;4.35;;;1.65;;
78336;SDS011;67610;51.588;7.002;2023-04-12T04:36:04;3.92;;;1.60;;
78336;SDS011;67610;51.588;7.002;2023-04-12T04:38:31;2.90;;;1.70;;
78336;SDS011;67610;51.588;7.002;2023-04-12T04:40:57;5.07;;;2.10;;
78336;SDS011;67610;51.588;7.002;2023-04-12T04:43:26;3.28;;;1.58;;
78336;SDS011;67610;51.588;7.002;2023-04-12T04:45:54;3.28;;;1.58;;
78336;SDS011;67610;51.588;7.002;2023-04-12T04:48:21;3.03;;;1.65;;
78336;SDS011;67610;51.588;7.002;2023-04-12T04:50:47;2.78;;;1.40;;
78336;SDS011;67610;51.588;7.002;2023-04-12T04:53:12;2.67;;;1.70;;
78336;SDS011;67610;51.588;7.002;2023-04-12T04:55:37;4.15;;;1.70;;
78336;SDS011;67610;51.588;7.002;2023-04-12T04:58:06;4.03;;;1.67;;
78336;SDS011;67610;51.588;7.002;2023-04-12T05:00:31;3.35;;;1.60;;
78336;SDS011;67610;51.588;7.002;2023-04-12T05:02:59;3.47;;;1.45;;
78336;SDS011;67610;51.588;7.002;2023-04-12T05:05:25;3.97;;;1.80;;
78336;SDS011;67610;51.588;7.002;2023-04-12T05:07:50;6.20;;;1.73;;
78336;SDS011;67610;51.588;7.002;2023-04-12T05:10:16;4.75;;;1.77;;
78336;SDS011;67610;51.588;7.002;2023-04-12T05:12:41;3.03;;;1.55;;
78336;SDS011;67610;51.588;7.002;2023-04-12T05:15:07;3.13;;;1.60;;
78336;SDS011;67610;51.588;7.002;2023-04-12T05:17:32;3.35;;;1.55;;
78336;SDS011;67610;51.588;7.002;2023-04-12T05:19:58;5.28;;;1.80;;
78336;SDS011;67610;51.588;7.002;2023-04-12T05:22:24;3.30;;;2.15;;
78336;SDS011;67610;51.588;7.002;2023-04-12T05:24:50;4.70;;;2.10;;
78336;SDS011;67610;51.588;7.002;2023-04-12T05:27:16;2.72;;;1.60;;
78336;SDS011;67610;51.588;7.002;2023-04-12T05:29:43;3.85;;;1.65;;
78336;SDS011;67610;51.588;7.002;2023-04-12T05:32:08;3.90;;;1.70;;
78336;SDS011;67610;51.588;7.002;2023-04-12T05:34:34;3.58;;;1.70;;
78336;SDS011;67610;51.588;7.002;2023-04-12T05:36:59;2.97;;;1.60;;
78336;SDS011;67610;51.588;7.002;2023-04-12T05:39:25;3.83;;;1.50;;
78336;SDS011;67610;51.588;7.002;2023-04-12T05:41:51;2.53;;;1.55;;
78336;SDS011;67610;51.588;7.002;2023-04-12T05:44:17;2.47;;;1.60;;
78336;SDS011;67610;51.588;7.002;2023-04-12T05:46:42;2.80;;;1.63;;
78336;SDS011;67610;51.588;7.002;2023-04-12T05:49:07;2.72;;;1.70;;
78336;SDS011;67610;51.588;7.002;2023-04-12T05:51:33;2.95;;;1.60;;
78336;SDS011;67610;51.588;7.002;2023-04-12T05:53:58;3.55;;;1.77;;
78336;SDS011;67610;51.588;7.002;2023-04-12T05:56:24;3.75;;;1.80;;
78336;SDS011;67610;51.588;7.002;2023-04-12T05:58:50;2.97;;;1.70;;
78336;SDS011;67610;51.588;7.002;2023-04-12T06:01:15;4.03;;;1.80;;
78336;SDS011;67610;51.588;7.002;2023-04-12T06:03:44;4.45;;;1.80;;
78336;SDS011;67610;51.588;7.002;2023-04-12T06:06:10;4.07;;;1.95;;
78336;SDS011;67610;51.588;7.002;2023-04-12T06:08:36;3.75;;;2.03;;
78336;SDS011;67610;51.588;7.002;2023-04-12T06:11:02;3.50;;;1.80;;
78336;SDS011;67610;51.588;7.002;2023-04-12T06:13:29;3.22;;;1.80;;
78336;SDS011;67610;51.588;7.002;2023-04-12T06:15:54;4.00;;;2.00;;
78336;SDS011;67610;51.588;7.002;2023-04-12T06:18:20;4.50;;;1.90;;
78336;SDS011;67610;51.588;7.002;2023-04-12T06:20:45;3.58;;;1.88;;
78336;SDS011;67610;51.588;7.002;2023-04-12T06:23:10;2.75;;;1.85;;
78336;SDS011;67610;51.588;7.002;2023-04-12T06:25:36;3.00;;;1.67;;
78336;SDS011;67610;51.588;7.002;2023-04-12T06:28:01;4.32;;;1.95;;
78336;SDS011;67610;51.588;7.002;2023-04-12T06:30:27;3.47;;;1.90;;
78336;SDS011;67610;51.588;7.002;2023-04-12T06:32:52;2.92;;;1.65;;
78336;SDS011;67610;51.588;7.002;2023-04-12T06:35:18;3.55;;;1.90;;
78336;SDS011;67610;51.588;7.002;2023-04-12T06:37:44;4.28;;;1.80;;
78336;SDS011;67610;51.588;7.002;2023-04-12T06:40:09;2.97;;;1.90;;
78336;SDS011;67610;51.588;7.002;2023-04-12T06:42:36;2.83;;;1.73;;
78336;SDS011;67610;51.588;7.002;2023-04-12T06:45:02;3.95;;;1.80;;
78336;SDS011;67610;51.588;7.002;2023-04-12T06:47:28;2.70;;;1.65;;
78336;SDS011;67610;51.588;7.002;2023-04-12T06:49:54;4.55;;;1.75;;
78336;SDS011;67610;51.588;7.002;2023-04-12T06:52:25;3.50;;;1.70;;
78336;SDS011;67610;51.588;7.002;2023-04-12T06:54:51;3.22;;;1.80;;
78336;SDS011;67610;51.588;7.002;2023-04-12T06:57:17;5.72;;;1.88;;
78336;SDS011;67610;51.588;7.002;2023-04-12T06:59:42;4.13;;;1.60;;
78336;SDS011;67610;51.588;7.002;2023-04-12T07:02:07;2.78;;;1.80;;
78336;SDS011;67610;51.588;7.002;2023-04-12T07:04:33;3.47;;;1.83;;
78336;SDS011;67610;51.588;7.002;2023-04-12T07:06:58;3.83;;;1.90;;
78336;SDS011;67610;51.588;7.002;2023-04-12T07:09:24;3.50;;;1.77;;
78336;SDS011;67610;51.588;7.002;2023-04-12T07:11:50;3.35;;;1.80;;
78336;SDS011;67610;51.588;7.002;2023-04-12T07:14:15;5.03;;;1.75;;
78336;SDS011;67610;51.588;7.002;2023-04-12T07:16:41;2.83;;;1.70;;
78336;SDS011;67610;51.588;7.002;2023-04-12T07:19:07;2.65;;;1.60;;
78336;SDS011;67610;51.588;7.002;2023-04-12T07:21:32;2.72;;;1.55;;
78336;SDS011;67610;51.588;7.002;2023-04-12T07:23:58;2.75;;;1.55;;
78336;SDS011;67610;51.588;7.002;2023-04-12T07:26:23;2.72;;;1.80;;
78336;SDS011;67610;51.588;7.002;2023-04-12T07:28:50;3.28;;;1.83;;
78336;SDS011;67610;51.588;7.002;2023-04-12T07:31:16;2.65;;;1.60;;
78336;SDS011;67610;51.588;7.002;2023-04-12T07:33:41;3.10;;;1.77;;
78336;SDS011;67610;51.588;7.002;2023-04-12T07:36:07;3.15;;;1.60;;
78336;SDS011;67610;51.588;7.002;2023-04-12T07:38:32;4.10;;;1.65;;
78336;SDS011;67610;51.588;7.002;2023-04-12T07:40:58;3.38;;;1.80;;
78336;SDS011;67610;51.588;7.002;2023-04-12T07:43:23;3.42;;;1.52;;
78336;SDS011;67610;51.588;7.002;2023-04-12T07:45:50;2.95;;;1.70;;
78336;SDS011;67610;51.588;7.002;2023-04-12T07:48:15;3.38;;;1.90;;
78336;SDS011;67610;51.588;7.002;2023-04-12T07:50:41;2.58;;;1.70;;
78336;SDS011;67610;51.588;7.002;2023-04-12T07:53:16;4.18;;;1.70;;
78336;SDS011;67610;51.588;7.002;2023-04-12T07:55:52;3.40;;;1.70;;
78336;SDS011;67610;51.588;7.002;2023-04-12T07:58:18;2.40;;;1.55;;
78336;SDS011;67610;51.588;7.002;2023-04-12T08:00:45;2.53;;;1.60;;
78336;SDS011;67610;51.588;7.002;2023-04-12T08:03:11;3.35;;;1.77;;
78336;SDS011;67610;51.588;7.002;2023-04-12T08:05:38;3.45;;;1.90;;
78336;SDS011;67610;51.588;7.002;2023-04-12T08:08:03;2.28;;;1.52;;
78336;SDS011;67610;51.588;7.002;2023-04-12T08:10:30;3.67;;;1.63;;
78336;SDS011;67610;51.588;7.002;2023-04-12T08:12:56;2.45;;;1.60;;
78336;SDS011;67610;51.588;7.002;2023-04-12T08:15:21;2.80;;;1.70;;
78336;SDS011;67610;51.588;7.002;2023-04-12T08:17:47;4.65;;;1.70;;
78336;SDS011;67610;51.588;7.002;2023-04-12T08:20:13;2.60;;;1.55;;
78336;SDS011;67610;51.588;7.002;2023-04-12T08:22:40;3.25;;;1.85;;
78336;SDS011;67610;51.588;7.002;2023-04-12T08:25:06;2.40;;;1.60;;
78336;SDS011;67610;51.588;7.002;2023-04-12T08:27:32;2.90;;;1.70;;
78336;SDS011;67610;51.588;7.002;2023-04-12T08:29:58;2.90;;;1.50;;
78336;SDS011;67610;51.588;7.002;2023-04-12T08:32:23;2.75;;;1.60;;
78336;SDS011;67610;51.588;7.002;2023-04-12T08:34:49;3.05;;;1.60;;
78336;SDS011;67610;51.588;7.002;2023-04-12T08:37:14;2.53;;;1.70;;
78336;SDS011;67610;51.588;7.002;2023-04-12T08:39:40;3.30;;;1.95;;
78336;SDS011;67610;51.588;7.002;2023-04-12T08:42:06;3.17;;;1.45;;
78336;SDS011;67610;51.588;7.002;2023-04-12T08:44:36;3.50;;;1.60;;
78336;SDS011;67610;51.588;7.002;2023-04-12T08:47:03;3.47;;;1.85;;
78336;SDS011;67610;51.588;7.002;2023-04-12T08:49:31;2.70;;;1.60;;
78336;SDS011;67610;51.588;7.002;2023-04-12T08:52:01;2.97;;;1.70;;
78336;SDS011;67610;51.588;7.002;2023-04-12T08:54:30;2.47;;;1.58;;
78336;SDS011;67610;51.588;7.002;2023-04-12T08:56:58;2.25;;;1.42;;
78336;SDS011;67610;51.588;7.002;2023-04-12T08:59:28;3.17;;;1.50;;
78336;SDS011;67610;51.588;7.002;2023-04-12T09:01:55;2.50;;;1.60;;
78336;SDS011;67610;51.588;7.002;2023-04-12T09:04:21;3.60;;;1.70;;
78336;SDS011;67610;51.588;7.002;2023-04-12T09:06:47;2.70;;;1.70;;
78336;SDS011;67610;51.588;7.002;2023-04-12T09:09:12;3.63;;;1.88;;
78336;SDS011;67610;51.588;7.002;2023-04-12T09:11:38;2.60;;;1.70;;
78336;SDS011;67610;51.588;7.002;2023-04-12T09:14:03;2.80;;;1.63;;
78336;SDS011;67610;51.588;7.002;2023-04-12T09:16:45;2.60;;;1.75;;
78336;SDS011;67610;51.588;7.002;2023-04-12T09:19:10;3.47;;;1.80;;
78336;SDS011;67610;51.588;7.002;2023-04-12T09:21:36;2.95;;;1.60;;
78336;SDS011;67610;51.588;7.002;2023-04-12T09:24:05;3.80;;;1.90;;
78336;SDS011;67610;51.588;7.002;2023-04-12T09:26:35;3.47;;;1.90;;
78336;SDS011;67610;51.588;7.002;2023-04-12T09:29:01;3.78;;;1.75;;
78336;SDS011;67610;51.588;7.002;2023-04-12T09:31:26;3.55;;;2.85;;
78336;SDS011;67610;51.588;7.002;2023-04-12T09:33:52;2.85;;;1.73;;
78336;SDS011;67610;51.588;7.002;2023-04-12T09:36:37;3.50;;;1.70;;
78336;SDS011;67610;51.588;7.002;2023-04-12T09:39:04;3.28;;;1.85;;
78336;SDS011;67610;51.588;7.002;2023-04-12T09:41:30;3.83;;;2.05;;
78336;SDS011;67610;51.588;7.002;2023-04-12T09:43:57;3.95;;;2.00;;
78336;SDS011;67610;51.588;7.002;2023-04-12T09:46:23;3.20;;;1.85;;
78336;SDS011;67610;51.588;7.002;2023-04-12T09:48:49;2.97;;;1.80;;
78336;SDS011;67610;51.588;7.002;2023-04-12T09:51:25;3.25;;;2.20;;
78336;SDS011;67610;51.588;7.002;2023-04-12T09:53:53;3.70;;;1.80;;
78336;SDS011;67610;51.588;7.002;2023-04-12T09:56:23;3.22;;;1.80;;
78336;SDS011;67610;51.588;7.002;2023-04-12T09:58:52;2.10;;;1.52;;
78336;SDS011;67610;51.588;7.002;2023-04-12T10:01:18;2.20;;;1.50;;
78336;SDS011;67610;51.588;7.002;2023-04-12T10:03:45;3.10;;;1.80;;
78336;SDS011;67610;51.588;7.002;2023-04-12T10:06:12;2.75;;;1.80;;
78336;SDS011;67610;51.588;7.002;2023-04-12T10:08:38;2.28;;;1.58;;
78336;SDS011;67610;51.588;7.002;2023-04-12T10:11:04;3.33;;;1.60;;
78336;SDS011;67610;51.588;7.002;2023-04-12T10:13:31;3.00;;;1.60;;
78336;SDS011;67610;51.588;7.002;2023-04-12T10:15:57;4.25;;;1.90;;
78336;SDS011;67610;51.588;7.002;2023-04-12T10:18:24;2.42;;;1.60;;
78336;SDS011;67610;51.588;7.002;2023-04-12T10:20:51;2.88;;;1.80;;
78336;SDS011;67610;51.588;7.002;2023-04-12T10:23:17;2.90;;;1.63;;
78336;SDS011;67610;51.588;7.002;2023-04-12T10:25:43;3.22;;;1.80;;
78336;SDS011;67610;51.588;7.002;2023-04-12T10:28:12;3.00;;;2.08;;
78336;SDS011;67610;51.588;7.002;2023-04-12T10:30:42;2.60;;;1.98;;
78336;SDS011;67610;51.588;7.002;2023-04-12T10:35:53;2.72;;;2.10;;
78336;SDS011;67610;51.588;7.002;2023-04-12T10:38:22;3.47;;;2.42;;
78336;SDS011;67610;51.588;7.002;2023-04-12T10:43:36;4.13;;;2.47;;
78336;SDS011;67610;51.588;7.002;2023-04-12T10:46:02;3.58;;;2.50;;
78336;SDS011;67610;51.588;7.002;2023-04-12T10:51:11;3.80;;;2.80;;
78336;SDS011;67610;51.588;7.002;2023-04-12T10:53:42;3.90;;;2.80;;
78336;SDS011;67610;51.588;7.002;2023-04-12T10:59:00;4.38;;;1.90;;
78336;SDS011;67610;51.588;7.002;2023-04-12T11:01:35;2.92;;;1.65;;
78336;SDS011;67610;51.588;7.002;2023-04-12T11:14:33;3.20;;;1.48;;
78336;SDS011;67610;51.588;7.002;2023-04-12T11:19:48;3.22;;;1.50;;
78336;SDS011;67610;51.588;7.002;2023-04-12T11:22:14;3.53;;;1.50;;
78336;SDS011;67610;51.588;7.002;2023-04-12T11:27:12;3.22;;;1.40;;
78336;SDS011;67610;51.588;7.002;2023-04-12T11:29:37;2.83;;;1.33;;
78336;SDS011;67610;51.588;7.002;2023-04-12T11:32:08;3.75;;;1.40;;
78336;SDS011;67610;51.588;7.002;2023-04-12T11:34:36;4.68;;;1.70;;
78336;SDS011;67610;51.588;7.002;2023-04-12T11:37:02;4.75;;;1.70;;
78336;SDS011;67610;51.588;7.002;2023-04-12T11:39:32;4.15;;;1.95;;
78336;SDS011;67610;51.588;7.002;2023-04-12T11:41:57;3.10;;;1.30;;
78336;SDS011;67610;51.588;7.002;2023-04-12T11:44:23;5.35;;;1.70;;
78336;SDS011;67610;51.588;7.002;2023-04-12T11:46:48;3.75;;;1.90;;
78336;SDS011;67610;51.588;7.002;2023-04-12T11:49:14;4.18;;;1.60;;
78336;SDS011;67610;51.588;7.002;2023-04-12T11:51:43;4.53;;;1.60;;
78336;SDS011;67610;51.588;7.002;2023-04-12T11:54:10;3.92;;;1.60;;
78336;SDS011;67610;51.588;7.002;2023-04-12T11:56:36;3.72;;;1.60;;
78336;SDS011;67610;51.588;7.002;2023-04-12T11:59:02;3.92;;;1.55;;
78336;SDS011;67610;51.588;7.002;2023-04-12T12:01:28;5.28;;;2.00;;
78336;SDS011;67610;51.588;7.002;2023-04-12T12:03:54;4.57;;;1.60;;
78336;SDS011;67610;51.588;7.002;2023-04-12T12:06:19;3.63;;;1.73;;
78336;SDS011;67610;51.588;7.002;2023-04-12T12:08:47;4.30;;;1.73;;
78336;SDS011;67610;51.588;7.002;2023-04-12T12:11:15;3.72;;;1.70;;
78336;SDS011;67610;51.588;7.002;2023-04-12T12:13:47;5.85;;;1.80;;
78336;SDS011;67610;51.588;7.002;2023-04-12T12:16:15;4.80;;;1.95;;
78336;SDS011;67610;51.588;7.002;2023-04-12T12:18:41;4.60;;;1.50;;
78336;SDS011;67610;51.588;7.002;2023-04-12T12:21:08;4.90;;;1.65;;
78336;SDS011;67610;51.588;7.002;2023-04-12T12:23:34;5.40;;;1.55;;
78336;SDS011;67610;51.588;7.002;2023-04-12T12:26:00;6.13;;;1.85;;
78336;SDS011;67610;51.588;7.002;2023-04-12T12:28:27;5.22;;;2.13;;
78336;SDS011;67610;51.588;7.002;2023-04-12T12:30:53;5.75;;;1.70;;
78336;SDS011;67610;51.588;7.002;2023-04-12T12:33:22;5.85;;;1.70;;
78336;SDS011;67610;51.588;7.002;2023-04-12T12:35:55;5.57;;;1.80;;
78336;SDS011;67610;51.588;7.002;2023-04-12T12:38:21;5.57;;;1.75;;
78336;SDS011;67610;51.588;7.002;2023-04-12T12:40:47;3.38;;;1.55;;
78336;SDS011;67610;51.588;7.002;2023-04-12T12:43:17;7.88;;;2.00;;
78336;SDS011;67610;51.588;7.002;2023-04-12T12:45:44;4.97;;;1.90;;
78336;SDS011;67610;51.588;7.002;2023-04-12T12:48:09;5.25;;;2.20;;
78336;SDS011;67610;51.588;7.002;2023-04-12T12:50:35;7.40;;;2.03;;
78336;SDS011;67610;51.588;7.002;2023-04-12T12:53:01;5.30;;;2.10;;
78336;SDS011;67610;51.588;7.002;2023-04-12T12:55:28;3.95;;;1.95;;
78336;SDS011;67610;51.588;7.002;2023-04-12T12:57:55;6.72;;;1.83;;
78336;SDS011;67610;51.588;7.002;2023-04-12T13:00:22;3.42;;;1.67;;
78336;SDS011;67610;51.588;7.002;2023-04-12T13:02:49;5.85;;;1.80;;
78336;SDS011;67610;51.588;7.002;2023-04-12T13:05:15;5.53;;;1.80;;
78336;SDS011;67610;51.588;7.002;2023-04-12T13:07:41;4.65;;;1.90;;
78336;SDS011;67610;51.588;7.002;2023-04-12T13:10:07;6.60;;;1.95;;
78336;SDS011;67610;51.588;7.002;2023-04-12T13:12:34;5.00;;;2.20;;
78336;SDS011;67610;51.588;7.002;2023-04-12T13:15:00;5.20;;;2.28;;
78336;SDS011;67610;51.588;7.002;2023-04-12T13:17:26;5.82;;;2.60;;
78336;SDS011;67610;51.588;7.002;2023-04-12T13:19:52;5.60;;;2.47;;
78336;SDS011;67610;51.588;7.002;2023-04-12T13:22:18;6.25;;;2.75;;
78336;SDS011;67610;51.588;7.002;2023-04-12T13:24:43;7.13;;;2.72;;
78336;SDS011;67610;51.588;7.002;2023-04-12T13:27:09;8.50;;;2.80;;
78336;SDS011;67610;51.588;7.002;2023-04-12T13:29:34;5.13;;;2.40;;
78336;SDS011;67610;51.588;7.002;2023-04-12T13:32:00;6.30;;;2.50;;
78336;SDS011;67610;51.588;7.002;2023-04-12T13:34:26;7.72;;;2.95;;
78336;SDS011;67610;51.588;7.002;2023-04-12T13:36:52;7.68;;;2.75;;
78336;SDS011;67610;51.588;7.002;2023-04-12T13:39:17;6.05;;;2.60;;
78336;SDS011;67610;51.588;7.002;2023-04-12T13:41:43;7.90;;;2.92;;
78336;SDS011;67610;51.588;7.002;2023-04-12T13:44:08;5.15;;;2.50;;
78336;SDS011;67610;51.588;7.002;2023-04-12T13:46:33;6.45;;;2.40;;
78336;SDS011;67610;51.588;7.002;2023-04-12T13:48:59;6.65;;;2.65;;
78336;SDS011;67610;51.588;7.002;2023-04-12T13:51:24;5.30;;;2.50;;
78336;SDS011;67610;51.588;7.002;2023-04-12T13:53:56;7.60;;;3.00;;
78336;SDS011;67610;51.588;7.002;2023-04-12T13:56:21;6.97;;;2.50;;
78336;SDS011;67610;51.588;7.002;2023-04-12T13:58:47;8.60;;;2.67;;
78336;SDS011;67610;51.588;7.002;2023-04-12T14:01:12;7.30;;;2.85;;
78336;SDS011;67610;51.588;7.002;2023-04-12T14:03:38;7.47;;;2.60;;
78336;SDS011;67610;51.588;7.002;2023-04-12T14:06:04;6.20;;;2.47;;
78336;SDS011;67610;51.588;7.002;2023-04-12T14:08:31;8.77;;;2.83;;
78336;SDS011;67610;51.588;7.002;2023-04-12T14:10:57;7.30;;;2.72;;
78336;SDS011;67610;51.588;7.002;2023-04-12T14:13:22;7.95;;;3.30;;
78336;SDS011;67610;51.588;7.002;2023-04-12T14:15:49;8.57;;;2.85;;
78336;SDS011;67610;51.588;7.002;2023-04-12T14:18:15;6.07;;;2.67;;
78336;SDS011;67610;51.588;7.002;2023-04-12T14:20:41;8.27;;;3.00;;
78336;SDS011;67610;51.588;7.002;2023-04-12T14:23:07;6.53;;;3.03;;
78336;SDS011;67610;51.588;7.002;2023-04-12T14:25:34;7.07;;;2.78;;
78336;SDS011;67610;51.588;7.002;2023-04-12T14:28:01;5.50;;;2.47;;
78336;SDS011;67610;51.588;7.002;2023-04-12T14:30:27;8.80;;;2.55;;
78336;SDS011;67610;51.588;7.002;2023-04-12T14:32:52;6.75;;;2.45;;
78336;SDS011;67610;51.588;7.002;2023-04-12T14:35:17;7.68;;;3.05;;
78336;SDS011;67610;51.588;7.002;2023-04-12T14:37:43;6.70;;;2.38;;
78336;SDS011;67610;51.588;7.002;2023-04-12T14:40:08;7.28;;;2.30;;
78336;SDS011;67610;51.588;7.002;2023-04-12T14:42:34;6.30;;;2.15;;
78336;SDS011;67610;51.588;7.002;2023-04-12T14:44:59;9.52;;;2.53;;
78336;SDS011;67610;51.588;7.002;2023-04-12T14:47:25;7.72;;;2.65;;
78336;SDS011;67610;51.588;7.002;2023-04-12T14:49:50;7.07;;;2.25;;
78336;SDS011;67610;51.588;7.002;2023-04-12T14:52:16;7.22;;;2.92;;
78336;SDS011;67610;51.588;7.002;2023-04-12T14:54:42;6.25;;;2.40;;
78336;SDS011;67610;51.588;7.002;2023-04-12T14:57:08;6.97;;;2.42;;
78336;SDS011;67610;51.588;7.002;2023-04-12T14:59:33;8.65;;;2.65;;
78336;SDS011;67610;51.588;7.002;2023-04-12T15:01:58;6.20;;;2.78;;
78336;SDS011;67610;51.588;7.002;2023-04-12T15:04:24;8.93;;;3.08;;
78336;SDS011;67610;51.588;7.002;2023-04-12T15:06:49;9.45;;;2.90;;
78336;SDS011;67610;51.588;7.002;2023-04-12T15:09:15;9.25;;;2.80;;
78336;SDS011;67610;51.588;7.002;2023-04-12T15:11:41;4.60;;;2.20;;
78336;SDS011;67610;51.588;7.002;2023-04-12T15:14:11;4.97;;;2.40;;
78336;SDS011;67610;51.588;7.002;2023-04-12T15:16:45;8.13;;;3.10;;
78336;SDS011;67610;51.588;7.002;2023-04-12T15:19:12;7.70;;;2.85;;
78336;SDS011;67610;51.588;7.002;2023-04-12T15:21:38;5.75;;;2.58;;
78336;SDS011;67610;51.588;7.002;2023-04-12T15:24:04;6.35;;;2.70;;
78336;SDS011;67610;51.588;7.002;2023-04-12T15:26:29;7.38;;;2.60;;
78336;SDS011;67610;51.588;7.002;2023-04-12T15:28:55;7.93;;;2.70;;
78336;SDS011;67610;51.588;7.002;2023-04-12T15:31:21;7.25;;;2.95;;
78336;SDS011;67610;51.588;7.002;2023-04-12T15:33:46;5.88;;;2.30;;